sensor_id;sensor_type;location;lat;lon;timestamp;temperature;humidity
3912;DHT22;1971;51.778;10.330;2023-03-03T00:01:42;-1.80;99.90
3912;DHT22;1971;51.778;10.330;2023-03-03T00:04:12;-1.60;99.90
3912;DHT22;1971;51.778;10.330;2023-03-03T00:06:46;-1.50;99.90
3912;DHT22;1971;51.778;10.330;2023-03-03T00:09:16;-1.80;99.90
3912;DHT22;1971;51.778;10.330;2023-03-03T00:11:46;-2.10;99.90
3912;DHT22;1971;51.778;10.330;2023-03-03T00:14:21;-1.80;99.90
3912;DHT22;1971;51.778;10.330;2023-03-03T00:16:53;-2.00;99.90
3912;DHT22;1971;51.778;10.330;2023-03-03T00:19:24;-2.10;99.90
3912;DHT22;1971;51.778;10.330;2023-03-03T00:21:57;-2.00;99.90
3912;DHT22;1971;51.778;10.330;2023-03-03T00:24:35;-2.10;99.90
3912;DHT22;1971;51.778;10.330;2023-03-03T00:27:16;-1.70;99.90
3912;DHT22;1971;51.778;10.330;2023-03-03T00:29:52;-2.10;99.90
3912;DHT22;1971;51.778;10.330;2023-03-03T00:32:26;-2.00;99.90
3912;DHT22;1971;51.778;10.330;2023-03-03T00:35:01;-1.80;99.90
3912;DHT22;1971;51.778;10.330;2023-03-03T00:37:40;-2.00;99.90
3912;DHT22;1971;51.778;10.330;2023-03-03T00:40:20;-1.70;99.90
3912;DHT22;1971;51.778;10.330;2023-03-03T00:42:53;-1.80;99.90
3912;DHT22;1971;51.778;10.330;2023-03-03T00:45:29;-2.20;99.90
3912;DHT22;1971;51.778;10.330;2023-03-03T00:48:10;-2.10;99.90
3912;DHT22;1971;51.778;10.330;2023-03-03T00:50:45;-2.10;99.90
3912;DHT22;1971;51.778;10.330;2023-03-03T00:53:19;-2.20;99.90
3912;DHT22;1971;51.778;10.330;2023-03-03T00:55:50;-2.00;99.90
3912;DHT22;1971;51.778;10.330;2023-03-03T00:58:21;-1.80;99.90
3912;DHT22;1971;51.778;10.330;2023-03-03T01:00:53;-2.10;99.90
3912;DHT22;1971;51.778;10.330;2023-03-03T01:03:35;-2.10;99.90
3912;DHT22;1971;51.778;10.330;2023-03-03T01:06:05;-2.00;99.90
3912;DHT22;1971;51.778;10.330;2023-03-03T01:08:38;-1.80;99.90
3912;DHT22;1971;51.778;10.330;2023-03-03T01:11:10;-2.30;99.90
3912;DHT22;1971;51.778;10.330;2023-03-03T01:13:44;-2.10;99.90
3912;DHT22;1971;51.778;10.330;2023-03-03T01:16:15;-2.30;99.90
3912;DHT22;1971;51.778;10.330;2023-03-03T01:18:46;-2.20;99.90
3912;DHT22;1971;51.778;10.330;2023-03-03T01:21:16;-2.10;99.90
3912;DHT22;1971;51.778;10.330;2023-03-03T01:23:48;-2.00;99.90
3912;DHT22;1971;51.778;10.330;2023-03-03T01:26:18;-2.10;99.90
3912;DHT22;1971;51.778;10.330;2023-03-03T01:28:48;-2.30;99.90
3912;DHT22;1971;51.778;10.330;2023-03-03T01:31:19;-2.50;99.90
3912;DHT22;1971;51.778;10.330;2023-03-03T01:33:49;-2.30;99.90
3912;DHT22;1971;51.778;10.330;2023-03-03T01:36:22;-2.20;99.90
3912;DHT22;1971;51.778;10.330;2023-03-03T01:38:55;-2.30;99.90
3912;DHT22;1971;51.778;10.330;2023-03-03T01:41:26;-2.40;99.90
3912;DHT22;1971;51.778;10.330;2023-03-03T01:43:59;-2.30;99.90
3912;DHT22;1971;51.778;10.330;2023-03-03T01:46:45;-2.30;99.90
3912;DHT22;1971;51.778;10.330;2023-03-03T01:49:19;-2.50;99.90
3912;DHT22;1971;51.778;10.330;2023-03-03T01:51:54;-2.70;99.90
3912;DHT22;1971;51.778;10.330;2023-03-03T01:54:33;-2.90;99.90
3912;DHT22;1971;51.778;10.330;2023-03-03T01:57:09;-2.80;99.90
3912;DHT22;1971;51.778;10.330;2023-03-03T01:59:43;-2.80;99.90
3912;DHT22;1971;51.778;10.330;2023-03-03T02:02:15;-2.70;99.90
3912;DHT22;1971;51.778;10.330;2023-03-03T02:04:45;-2.70;99.90
3912;DHT22;1971;51.778;10.330;2023-03-03T02:07:16;-2.40;99.90
3912;DHT22;1971;51.778;10.330;2023-03-03T02:10:09;-2.50;99.90
3912;DHT22;1971;51.778;10.330;2023-03-03T02:15:28;-2.90;99.90
3912;DHT22;1971;51.778;10.330;2023-03-03T02:18:01;-2.90;99.90
3912;DHT22;1971;51.778;10.330;2023-03-03T02:20:43;-3.20;99.90
3912;DHT22;1971;51.778;10.330;2023-03-03T02:23:19;-3.00;99.90
3912;DHT22;1971;51.778;10.330;2023-03-03T02:26:07;-3.20;99.90
3912;DHT22;1971;51.778;10.330;2023-03-03T02:28:39;-3.00;99.90
3912;DHT22;1971;51.778;10.330;2023-03-03T02:31:13;-3.20;99.90
3912;DHT22;1971;51.778;10.330;2023-03-03T02:33:45;-2.80;99.90
3912;DHT22;1971;51.778;10.330;2023-03-03T02:36:18;-3.20;99.90
3912;DHT22;1971;51.778;10.330;2023-03-03T02:38:50;-3.20;99.90
3912;DHT22;1971;51.778;10.330;2023-03-03T02:41:31;-2.80;99.90
3912;DHT22;1971;51.778;10.330;2023-03-03T02:44:05;-3.00;99.90
3912;DHT22;1971;51.778;10.330;2023-03-03T02:46:37;-2.70;99.90
3912;DHT22;1971;51.778;10.330;2023-03-03T02:49:09;-2.70;99.90
3912;DHT22;1971;51.778;10.330;2023-03-03T02:51:41;-2.80;99.90
3912;DHT22;1971;51.778;10.330;2023-03-03T02:54:13;-2.40;99.90
3912;DHT22;1971;51.778;10.330;2023-03-03T02:56:46;-2.40;99.90
3912;DHT22;1971;51.778;10.330;2023-03-03T02:59:17;-2.30;99.90
3912;DHT22;1971;51.778;10.330;2023-03-03T03:01:49;-2.60;99.90
3912;DHT22;1971;51.778;10.330;2023-03-03T03:04:21;-2.40;99.90
3912;DHT22;1971;51.778;10.330;2023-03-03T03:06:53;-2.30;99.90
3912;DHT22;1971;51.778;10.330;2023-03-03T03:09:28;-2.50;99.90
3912;DHT22;1971;51.778;10.330;2023-03-03T03:12:01;-2.60;99.90
3912;DHT22;1971;51.778;10.330;2023-03-03T03:14:33;-2.40;99.90
3912;DHT22;1971;51.778;10.330;2023-03-03T03:17:05;-2.80;99.90
3912;DHT22;1971;51.778;10.330;2023-03-03T03:19:35;-2.60;99.90
3912;DHT22;1971;51.778;10.330;2023-03-03T03:22:06;-2.50;99.90
3912;DHT22;1971;51.778;10.330;2023-03-03T03:24:36;-2.70;99.90
3912;DHT22;1971;51.778;10.330;2023-03-03T03:27:10;-2.30;99.90
3912;DHT22;1971;51.778;10.330;2023-03-03T03:29:40;-2.70;99.90
3912;DHT22;1971;51.778;10.330;2023-03-03T03:32:11;-2.70;99.90
3912;DHT22;1971;51.778;10.330;2023-03-03T03:34:43;-2.80;99.90
3912;DHT22;1971;51.778;10.330;2023-03-03T03:37:13;-2.80;99.90
3912;DHT22;1971;51.778;10.330;2023-03-03T03:39:46;-2.80;99.90
3912;DHT22;1971;51.778;10.330;2023-03-03T03:42:21;-2.70;99.90
3912;DHT22;1971;51.778;10.330;2023-03-03T03:44:51;-2.80;99.90
3912;DHT22;1971;51.778;10.330;2023-03-03T03:47:21;-2.70;99.90
3912;DHT22;1971;51.778;10.330;2023-03-03T03:49:51;-2.90;99.90
3912;DHT22;1971;51.778;10.330;2023-03-03T03:52:21;-2.70;99.90
3912;DHT22;1971;51.778;10.330;2023-03-03T03:54:52;-3.10;99.90
3912;DHT22;1971;51.778;10.330;2023-03-03T03:57:25;-3.00;99.90
3912;DHT22;1971;51.778;10.330;2023-03-03T03:59:55;-2.80;99.90
3912;DHT22;1971;51.778;10.330;2023-03-03T04:02:25;-2.70;99.90
3912;DHT22;1971;51.778;10.330;2023-03-03T04:04:56;-3.00;99.90
3912;DHT22;1971;51.778;10.330;2023-03-03T04:07:27;-2.90;99.90
3912;DHT22;1971;51.778;10.330;2023-03-03T04:09:58;-2.90;99.90
3912;DHT22;1971;51.778;10.330;2023-03-03T04:12:30;-2.80;99.90
3912;DHT22;1971;51.778;10.330;2023-03-03T04:15:10;-3.10;99.90
3912;DHT22;1971;51.778;10.330;2023-03-03T04:17:41;-2.80;99.90
3912;DHT22;1971;51.778;10.330;2023-03-03T04:20:13;-2.80;99.90
3912;DHT22;1971;51.778;10.330;2023-03-03T04:22:45;-3.10;99.90
3912;DHT22;1971;51.778;10.330;2023-03-03T04:25:16;-3.00;99.90
3912;DHT22;1971;51.778;10.330;2023-03-03T04:27:49;-2.90;99.90
3912;DHT22;1971;51.778;10.330;2023-03-03T04:30:21;-2.70;99.90
3912;DHT22;1971;51.778;10.330;2023-03-03T04:32:56;-3.00;99.90
3912;DHT22;1971;51.778;10.330;2023-03-03T04:38:34;-3.40;99.90
3912;DHT22;1971;51.778;10.330;2023-03-03T04:41:06;-2.90;99.90
3912;DHT22;1971;51.778;10.330;2023-03-03T04:43:40;-3.20;99.90
3912;DHT22;1971;51.778;10.330;2023-03-03T04:46:12;-3.00;99.90
3912;DHT22;1971;51.778;10.330;2023-03-03T04:48:42;-3.20;99.90
3912;DHT22;1971;51.778;10.330;2023-03-03T04:51:17;-2.90;99.90
3912;DHT22;1971;51.778;10.330;2023-03-03T04:53:47;-3.20;99.90
3912;DHT22;1971;51.778;10.330;2023-03-03T04:56:18;-3.00;99.90
3912;DHT22;1971;51.778;10.330;2023-03-03T04:58:51;-3.10;99.90
3912;DHT22;1971;51.778;10.330;2023-03-03T05:01:21;-3.40;99.90
3912;DHT22;1971;51.778;10.330;2023-03-03T05:03:52;-3.30;99.90
3912;DHT22;1971;51.778;10.330;2023-03-03T05:06:22;-3.00;99.90
3912;DHT22;1971;51.778;10.330;2023-03-03T05:08:52;-3.30;99.90
3912;DHT22;1971;51.778;10.330;2023-03-03T05:11:22;-3.10;99.90
3912;DHT22;1971;51.778;10.330;2023-03-03T05:13:54;-3.20;99.90
3912;DHT22;1971;51.778;10.330;2023-03-03T05:16:25;-3.00;99.90
3912;DHT22;1971;51.778;10.330;2023-03-03T05:18:55;-3.20;99.90
3912;DHT22;1971;51.778;10.330;2023-03-03T05:21:24;-3.40;99.90
3912;DHT22;1971;51.778;10.330;2023-03-03T05:23:54;-3.20;99.90
3912;DHT22;1971;51.778;10.330;2023-03-03T05:26:24;-3.30;99.90
3912;DHT22;1971;51.778;10.330;2023-03-03T05:28:57;-3.30;99.90
3912;DHT22;1971;51.778;10.330;2023-03-03T05:31:27;-3.30;99.90
3912;DHT22;1971;51.778;10.330;2023-03-03T05:33:57;-3.30;99.90
3912;DHT22;1971;51.778;10.330;2023-03-03T05:36:27;-3.30;99.90
3912;DHT22;1971;51.778;10.330;2023-03-03T05:38:57;-3.40;99.90
3912;DHT22;1971;51.778;10.330;2023-03-03T05:41:27;-3.20;99.90
3912;DHT22;1971;51.778;10.330;2023-03-03T05:43:59;-3.20;99.90
3912;DHT22;1971;51.778;10.330;2023-03-03T05:46:29;-3.10;99.90
3912;DHT22;1971;51.778;10.330;2023-03-03T05:48:59;-2.80;99.90
3912;DHT22;1971;51.778;10.330;2023-03-03T05:51:29;-3.10;99.90
3912;DHT22;1971;51.778;10.330;2023-03-03T05:53:59;-2.90;99.90
3912;DHT22;1971;51.778;10.330;2023-03-03T05:56:29;-2.90;99.90
3912;DHT22;1971;51.778;10.330;2023-03-03T05:59:01;-3.00;99.90
3912;DHT22;1971;51.778;10.330;2023-03-03T06:01:31;-2.80;99.90
3912;DHT22;1971;51.778;10.330;2023-03-03T06:04:01;-2.90;99.90
3912;DHT22;1971;51.778;10.330;2023-03-03T06:06:31;-2.60;99.90
3912;DHT22;1971;51.778;10.330;2023-03-03T06:09:01;-2.70;99.90
3912;DHT22;1971;51.778;10.330;2023-03-03T06:11:32;-3.00;99.90
3912;DHT22;1971;51.778;10.330;2023-03-03T06:14:05;-2.70;99.90
3912;DHT22;1971;51.778;10.330;2023-03-03T06:16:36;-2.70;99.90
3912;DHT22;1971;51.778;10.330;2023-03-03T06:19:06;-2.60;99.90
3912;DHT22;1971;51.778;10.330;2023-03-03T06:21:36;-2.70;99.90
3912;DHT22;1971;51.778;10.330;2023-03-03T06:24:06;-2.60;99.90
3912;DHT22;1971;51.778;10.330;2023-03-03T06:26:36;-2.70;99.90
3912;DHT22;1971;51.778;10.330;2023-03-03T06:29:09;-2.80;99.90
3912;DHT22;1971;51.778;10.330;2023-03-03T06:31:41;-2.70;99.90
3912;DHT22;1971;51.778;10.330;2023-03-03T06:34:11;-2.50;99.90
3912;DHT22;1971;51.778;10.330;2023-03-03T06:36:41;-2.40;99.90
3912;DHT22;1971;51.778;10.330;2023-03-03T06:39:11;-2.70;99.90
3912;DHT22;1971;51.778;10.330;2023-03-03T06:41:41;-2.50;99.90
3912;DHT22;1971;51.778;10.330;2023-03-03T06:44:13;-2.50;99.90
3912;DHT22;1971;51.778;10.330;2023-03-03T06:46:43;-2.30;99.90
3912;DHT22;1971;51.778;10.330;2023-03-03T06:49:13;-2.30;99.90
3912;DHT22;1971;51.778;10.330;2023-03-03T06:51:43;-2.30;99.90
3912;DHT22;1971;51.778;10.330;2023-03-03T06:54:15;-1.90;99.90
3912;DHT22;1971;51.778;10.330;2023-03-03T06:56:48;-2.20;99.90
3912;DHT22;1971;51.778;10.330;2023-03-03T06:59:22;-2.00;99.90
3912;DHT22;1971;51.778;10.330;2023-03-03T07:01:52;-2.10;99.90
3912;DHT22;1971;51.778;10.330;2023-03-03T07:04:26;-2.20;99.90
3912;DHT22;1971;51.778;10.330;2023-03-03T07:06:59;-2.30;99.90
3912;DHT22;1971;51.778;10.330;2023-03-03T07:09:34;-2.30;99.90
3912;DHT22;1971;51.778;10.330;2023-03-03T07:12:09;-2.40;99.90
3912;DHT22;1971;51.778;10.330;2023-03-03T07:14:47;-2.10;99.90
3912;DHT22;1971;51.778;10.330;2023-03-03T07:17:24;-2.00;99.90
3912;DHT22;1971;51.778;10.330;2023-03-03T07:19:57;-2.00;99.90
3912;DHT22;1971;51.778;10.330;2023-03-03T07:22:27;-1.90;99.90
3912;DHT22;1971;51.778;10.330;2023-03-03T07:24:59;-1.90;99.90
3912;DHT22;1971;51.778;10.330;2023-03-03T07:27:30;-1.90;99.90
3912;DHT22;1971;51.778;10.330;2023-03-03T07:30:16;-2.00;99.90
3912;DHT22;1971;51.778;10.330;2023-03-03T07:32:51;-1.90;99.90
3912;DHT22;1971;51.778;10.330;2023-03-03T07:35:32;-1.50;99.90
3912;DHT22;1971;51.778;10.330;2023-03-03T07:38:17;-1.20;99.90
3912;DHT22;1971;51.778;10.330;2023-03-03T07:40:49;-1.50;99.90
3912;DHT22;1971;51.778;10.330;2023-03-03T07:43:38;-1.60;99.90
3912;DHT22;1971;51.778;10.330;2023-03-03T07:46:25;-1.10;99.90
3912;DHT22;1971;51.778;10.330;2023-03-03T07:48:57;-1.20;99.90
3912;DHT22;1971;51.778;10.330;2023-03-03T07:51:31;-1.10;99.90
3912;DHT22;1971;51.778;10.330;2023-03-03T07:54:25;-0.80;99.90
3912;DHT22;1971;51.778;10.330;2023-03-03T07:56:59;-1.20;99.90
3912;DHT22;1971;51.778;10.330;2023-03-03T07:59:34;-1.20;99.90
3912;DHT22;1971;51.778;10.330;2023-03-03T08:05:26;-0.40;99.90
3912;DHT22;1971;51.778;10.330;2023-03-03T08:08:13;-0.50;99.90
3912;DHT22;1971;51.778;10.330;2023-03-03T08:10:47;-0.30;99.90
3912;DHT22;1971;51.778;10.330;2023-03-03T08:13:19;-0.60;99.90
3912;DHT22;1971;51.778;10.330;2023-03-03T08:15:51;-0.60;99.90
3912;DHT22;1971;51.778;10.330;2023-03-03T08:18:28;-0.70;99.90
3912;DHT22;1971;51.778;10.330;2023-03-03T08:20:59;-0.40;99.90
3912;DHT22;1971;51.778;10.330;2023-03-03T08:23:29;-0.90;99.90
3912;DHT22;1971;51.778;10.330;2023-03-03T08:25:59;-0.70;99.90
3912;DHT22;1971;51.778;10.330;2023-03-03T08:28:29;-0.20;99.90
3912;DHT22;1971;51.778;10.330;2023-03-03T08:30:59;-0.30;97.30
3912;DHT22;1971;51.778;10.330;2023-03-03T08:33:48;0.10;84.70
3912;DHT22;1971;51.778;10.330;2023-03-03T08:36:18;0.50;30.10
3912;DHT22;1971;51.778;10.330;2023-03-03T08:38:48;0.50;1.00
3912;DHT22;1971;51.778;10.330;2023-03-03T08:41:18;1.00;1.00
3912;DHT22;1971;51.778;10.330;2023-03-03T08:43:48;1.00;1.00
3912;DHT22;1971;51.778;10.330;2023-03-03T08:46:18;1.20;1.00
3912;DHT22;1971;51.778;10.330;2023-03-03T08:48:51;1.50;1.00
3912;DHT22;1971;51.778;10.330;2023-03-03T08:51:21;1.50;1.00
3912;DHT22;1971;51.778;10.330;2023-03-03T08:53:52;1.50;1.00
3912;DHT22;1971;51.778;10.330;2023-03-03T08:56:22;1.90;1.00
3912;DHT22;1971;51.778;10.330;2023-03-03T08:58:52;2.70;1.00
3912;DHT22;1971;51.778;10.330;2023-03-03T09:01:28;2.00;99.90
3912;DHT22;1971;51.778;10.330;2023-03-03T09:04:01;2.00;99.90
3912;DHT22;1971;51.778;10.330;2023-03-03T09:06:31;2.00;99.90
3912;DHT22;1971;51.778;10.330;2023-03-03T09:09:02;1.70;99.90
3912;DHT22;1971;51.778;10.330;2023-03-03T09:11:32;1.50;99.90
3912;DHT22;1971;51.778;10.330;2023-03-03T09:14:06;1.50;1.00
3912;DHT22;1971;51.778;10.330;2023-03-03T09:16:41;1.60;1.00
3912;DHT22;1971;51.778;10.330;2023-03-03T09:19:22;1.60;1.00
3912;DHT22;1971;51.778;10.330;2023-03-03T09:21:55;1.80;1.00
3912;DHT22;1971;51.778;10.330;2023-03-03T09:24:27;2.40;1.00
3912;DHT22;1971;51.778;10.330;2023-03-03T09:26:58;2.90;1.00
3912;DHT22;1971;51.778;10.330;2023-03-03T09:29:34;3.30;99.90
3912;DHT22;1971;51.778;10.330;2023-03-03T09:32:30;3.80;99.90
3912;DHT22;1971;51.778;10.330;2023-03-03T09:35:33;4.20;99.90
3912;DHT22;1971;51.778;10.330;2023-03-03T09:38:17;3.80;99.90
3912;DHT22;1971;51.778;10.330;2023-03-03T09:43:45;4.20;99.90
3912;DHT22;1971;51.778;10.330;2023-03-03T09:46:22;3.60;99.90
3912;DHT22;1971;51.778;10.330;2023-03-03T09:49:04;3.30;99.90
3912;DHT22;1971;51.778;10.330;2023-03-03T09:51:56;3.00;99.90
3912;DHT22;1971;51.778;10.330;2023-03-03T09:54:40;2.90;99.90
3912;DHT22;1971;51.778;10.330;2023-03-03T09:57:16;2.50;99.90
3912;DHT22;1971;51.778;10.330;2023-03-03T10:00:06;1.50;99.90
3912;DHT22;1971;51.778;10.330;2023-03-03T10:02:46;1.30;99.90
3912;DHT22;1971;51.778;10.330;2023-03-03T10:05:32;1.40;99.90
3912;DHT22;1971;51.778;10.330;2023-03-03T10:08:20;1.30;1.00
3912;DHT22;1971;51.778;10.330;2023-03-03T10:11:02;1.30;1.00
3912;DHT22;1971;51.778;10.330;2023-03-03T10:13:46;1.10;1.00
3912;DHT22;1971;51.778;10.330;2023-03-03T10:19:29;2.10;1.00
3912;DHT22;1971;51.778;10.330;2023-03-03T10:22:17;2.30;1.00
3912;DHT22;1971;51.778;10.330;2023-03-03T10:25:07;2.00;99.90
3912;DHT22;1971;51.778;10.330;2023-03-03T10:27:55;1.90;99.90
3912;DHT22;1971;51.778;10.330;2023-03-03T10:30:38;1.70;99.90
3912;DHT22;1971;51.778;10.330;2023-03-03T10:33:36;1.90;99.90
3912;DHT22;1971;51.778;10.330;2023-03-03T10:36:27;2.00;99.90
3912;DHT22;1971;51.778;10.330;2023-03-03T10:39:13;2.20;99.90
3912;DHT22;1971;51.778;10.330;2023-03-03T10:41:58;2.60;99.90
3912;DHT22;1971;51.778;10.330;2023-03-03T10:44:43;2.30;99.90
3912;DHT22;1971;51.778;10.330;2023-03-03T10:47:39;3.00;99.90
3912;DHT22;1971;51.778;10.330;2023-03-03T10:50:20;2.90;99.90
3912;DHT22;1971;51.778;10.330;2023-03-03T10:52:54;3.20;99.90
3912;DHT22;1971;51.778;10.330;2023-03-03T10:55:41;3.30;99.90
3912;DHT22;1971;51.778;10.330;2023-03-03T10:58:37;3.20;99.90
3912;DHT22;1971;51.778;10.330;2023-03-03T11:01:15;2.90;99.90
3912;DHT22;1971;51.778;10.330;2023-03-03T11:04:22;3.20;99.90
3912;DHT22;1971;51.778;10.330;2023-03-03T11:07:00;2.90;99.90
3912;DHT22;1971;51.778;10.330;2023-03-03T11:09:40;2.80;99.90
3912;DHT22;1971;51.778;10.330;2023-03-03T11:12:22;2.80;99.90
3912;DHT22;1971;51.778;10.330;2023-03-03T11:17:57;2.90;99.90
3912;DHT22;1971;51.778;10.330;2023-03-03T11:20:35;3.30;99.90
3912;DHT22;1971;51.778;10.330;2023-03-03T11:26:14;2.40;99.90
3912;DHT22;1971;51.778;10.330;2023-03-03T11:29:03;1.80;99.90
3912;DHT22;1971;51.778;10.330;2023-03-03T11:31:45;1.80;1.00
3912;DHT22;1971;51.778;10.330;2023-03-03T11:34:33;1.40;1.00
3912;DHT22;1971;51.778;10.330;2023-03-03T11:37:08;1.50;1.00
3912;DHT22;1971;51.778;10.330;2023-03-03T11:39:39;1.40;1.00
3912;DHT22;1971;51.778;10.330;2023-03-03T11:42:16;1.40;1.00
3912;DHT22;1971;51.778;10.330;2023-03-03T11:44:51;1.60;1.00
3912;DHT22;1971;51.778;10.330;2023-03-03T11:47:30;1.50;1.00
3912;DHT22;1971;51.778;10.330;2023-03-03T11:50:04;1.60;1.00
3912;DHT22;1971;51.778;10.330;2023-03-03T11:52:42;1.60;1.00
3912;DHT22;1971;51.778;10.330;2023-03-03T11:55:18;1.50;1.00
3912;DHT22;1971;51.778;10.330;2023-03-03T11:57:51;1.20;1.00
3912;DHT22;1971;51.778;10.330;2023-03-03T12:00:30;0.90;47.70
3912;DHT22;1971;51.778;10.330;2023-03-03T12:06:16;1.10;99.90
3912;DHT22;1971;51.778;10.330;2023-03-03T12:09:12;1.20;99.90
3912;DHT22;1971;51.778;10.330;2023-03-03T12:11:47;1.20;99.90
3912;DHT22;1971;51.778;10.330;2023-03-03T12:14:32;1.40;99.90
3912;DHT22;1971;51.778;10.330;2023-03-03T12:17:16;1.30;99.90
3912;DHT22;1971;51.778;10.330;2023-03-03T12:19:57;1.40;99.90
3912;DHT22;1971;51.778;10.330;2023-03-03T12:22:34;1.50;99.90
3912;DHT22;1971;51.778;10.330;2023-03-03T12:25:18;1.70;99.90
3912;DHT22;1971;51.778;10.330;2023-03-03T12:27:55;1.40;99.90
3912;DHT22;1971;51.778;10.330;2023-03-03T12:33:39;1.10;99.90
3912;DHT22;1971;51.778;10.330;2023-03-03T12:36:25;1.00;99.90
3912;DHT22;1971;51.778;10.330;2023-03-03T12:39:01;0.90;99.90
3912;DHT22;1971;51.778;10.330;2023-03-03T12:41:35;0.70;99.90
3912;DHT22;1971;51.778;10.330;2023-03-03T12:44:13;1.00;99.90
3912;DHT22;1971;51.778;10.330;2023-03-03T12:46:52;0.90;99.90
3912;DHT22;1971;51.778;10.330;2023-03-03T12:49:35;0.90;99.90
3912;DHT22;1971;51.778;10.330;2023-03-03T12:52:23;1.10;99.90
3912;DHT22;1971;51.778;10.330;2023-03-03T12:55:04;1.10;99.90
3912;DHT22;1971;51.778;10.330;2023-03-03T12:57:42;0.90;99.90
3912;DHT22;1971;51.778;10.330;2023-03-03T13:00:26;1.00;99.90
3912;DHT22;1971;51.778;10.330;2023-03-03T13:03:02;1.20;99.90
3912;DHT22;1971;51.778;10.330;2023-03-03T13:05:43;1.30;99.90
3912;DHT22;1971;51.778;10.330;2023-03-03T13:08:38;1.60;99.90
3912;DHT22;1971;51.778;10.330;2023-03-03T13:11:27;1.80;99.90
3912;DHT22;1971;51.778;10.330;2023-03-03T13:14:11;2.00;99.90
3912;DHT22;1971;51.778;10.330;2023-03-03T13:16:48;1.60;99.90
3912;DHT22;1971;51.778;10.330;2023-03-03T13:19:27;1.70;99.90
3912;DHT22;1971;51.778;10.330;2023-03-03T13:22:06;2.10;99.90
3912;DHT22;1971;51.778;10.330;2023-03-03T13:24:50;1.90;99.90
3912;DHT22;1971;51.778;10.330;2023-03-03T13:27:26;2.00;99.90
3912;DHT22;1971;51.778;10.330;2023-03-03T13:30:02;1.70;99.90
3912;DHT22;1971;51.778;10.330;2023-03-03T13:32:39;1.50;99.90
3912;DHT22;1971;51.778;10.330;2023-03-03T13:35:19;1.90;99.90
3912;DHT22;1971;51.778;10.330;2023-03-03T13:37:55;2.40;99.90
3912;DHT22;1971;51.778;10.330;2023-03-03T13:40:37;2.30;55.30
3912;DHT22;1971;51.778;10.330;2023-03-03T13:43:16;2.20;63.60
3912;DHT22;1971;51.778;10.330;2023-03-03T13:45:53;1.90;12.50
3912;DHT22;1971;51.778;10.330;2023-03-03T13:48:41;2.30;58.70
3912;DHT22;1971;51.778;10.330;2023-03-03T13:51:18;2.30;1.00
3912;DHT22;1971;51.778;10.330;2023-03-03T13:53:57;1.80;1.00
3912;DHT22;1971;51.778;10.330;2023-03-03T13:56:48;1.60;19.70
3912;DHT22;1971;51.778;10.330;2023-03-03T13:59:29;2.10;80.30
3912;DHT22;1971;51.778;10.330;2023-03-03T14:02:15;2.30;44.80
3912;DHT22;1971;51.778;10.330;2023-03-03T14:04:53;2.50;1.00
3912;DHT22;1971;51.778;10.330;2023-03-03T14:07:33;2.50;1.00
3912;DHT22;1971;51.778;10.330;2023-03-03T14:10:10;2.60;1.00
3912;DHT22;1971;51.778;10.330;2023-03-03T14:12:49;2.10;1.00
3912;DHT22;1971;51.778;10.330;2023-03-03T14:15:23;2.30;1.00
3912;DHT22;1971;51.778;10.330;2023-03-03T14:18:19;1.50;1.00
3912;DHT22;1971;51.778;10.330;2023-03-03T14:20:52;1.40;1.00
3912;DHT22;1971;51.778;10.330;2023-03-03T14:23:26;1.50;91.90
3912;DHT22;1971;51.778;10.330;2023-03-03T14:26:06;1.80;99.90
3912;DHT22;1971;51.778;10.330;2023-03-03T14:28:43;1.90;99.90
3912;DHT22;1971;51.778;10.330;2023-03-03T14:31:17;2.30;99.90
3912;DHT22;1971;51.778;10.330;2023-03-03T14:34:00;2.40;96.10
3912;DHT22;1971;51.778;10.330;2023-03-03T14:36:32;2.50;3.80
3912;DHT22;1971;51.778;10.330;2023-03-03T14:39:27;2.60;1.00
3912;DHT22;1971;51.778;10.330;2023-03-03T14:41:59;2.50;1.00
3912;DHT22;1971;51.778;10.330;2023-03-03T14:44:35;2.50;1.00
3912;DHT22;1971;51.778;10.330;2023-03-03T14:47:17;2.30;1.00
3912;DHT22;1971;51.778;10.330;2023-03-03T14:49:48;2.50;1.00
3912;DHT22;1971;51.778;10.330;2023-03-03T14:52:24;2.00;1.00
3912;DHT22;1971;51.778;10.330;2023-03-03T14:54:55;2.40;1.00
3912;DHT22;1971;51.778;10.330;2023-03-03T14:57:40;1.80;1.00
3912;DHT22;1971;51.778;10.330;2023-03-03T15:00:31;1.60;1.00
3912;DHT22;1971;51.778;10.330;2023-03-03T15:03:17;1.60;1.00
3912;DHT22;1971;51.778;10.330;2023-03-03T15:05:49;1.80;16.50
3912;DHT22;1971;51.778;10.330;2023-03-03T15:08:29;1.80;44.80
3912;DHT22;1971;51.778;10.330;2023-03-03T15:11:19;2.00;51.60
3912;DHT22;1971;51.778;10.330;2023-03-03T15:13:49;2.00;14.60
3912;DHT22;1971;51.778;10.330;2023-03-03T15:16:30;2.10;1.00
3912;DHT22;1971;51.778;10.330;2023-03-03T15:19:32;1.90;1.00
3912;DHT22;1971;51.778;10.330;2023-03-03T15:22:12;1.80;1.00
3912;DHT22;1971;51.778;10.330;2023-03-03T15:24:50;2.10;1.00
3912;DHT22;1971;51.778;10.330;2023-03-03T15:27:27;1.60;1.00
3912;DHT22;1971;51.778;10.330;2023-03-03T15:30:06;1.50;1.00
3912;DHT22;1971;51.778;10.330;2023-03-03T15:32:47;1.30;4.30
3912;DHT22;1971;51.778;10.330;2023-03-03T15:35:26;1.10;30.40
3912;DHT22;1971;51.778;10.330;2023-03-03T15:38:03;1.10;98.10
3912;DHT22;1971;51.778;10.330;2023-03-03T15:40:41;0.80;99.90
3912;DHT22;1971;51.778;10.330;2023-03-03T15:43:20;0.80;99.90
3912;DHT22;1971;51.778;10.330;2023-03-03T15:45:59;0.80;99.90
3912;DHT22;1971;51.778;10.330;2023-03-03T15:48:44;0.40;99.90
3912;DHT22;1971;51.778;10.330;2023-03-03T15:51:25;0.60;99.90
3912;DHT22;1971;51.778;10.330;2023-03-03T15:54:26;0.40;99.90
3912;DHT22;1971;51.778;10.330;2023-03-03T15:57:00;0.50;99.90
3912;DHT22;1971;51.778;10.330;2023-03-03T15:59:54;0.30;99.90
3912;DHT22;1971;51.778;10.330;2023-03-03T16:02:29;0.60;99.90
3912;DHT22;1971;51.778;10.330;2023-03-03T16:05:13;0.70;99.90
3912;DHT22;1971;51.778;10.330;2023-03-03T16:07:50;0.40;99.90
3912;DHT22;1971;51.778;10.330;2023-03-03T16:10:28;0.60;99.90
3912;DHT22;1971;51.778;10.330;2023-03-03T16:13:17;0.60;99.90
3912;DHT22;1971;51.778;10.330;2023-03-03T16:15:54;0.20;99.90
3912;DHT22;1971;51.778;10.330;2023-03-03T16:18:35;0.40;99.90
3912;DHT22;1971;51.778;10.330;2023-03-03T16:21:20;0.30;99.90
3912;DHT22;1971;51.778;10.330;2023-03-03T16:23:55;-0.10;99.90
3912;DHT22;1971;51.778;10.330;2023-03-03T16:26:38;0.30;99.90
3912;DHT22;1971;51.778;10.330;2023-03-03T16:32:05;0.40;99.90
3912;DHT22;1971;51.778;10.330;2023-03-03T16:34:46;-0.30;99.90
3912;DHT22;1971;51.778;10.330;2023-03-03T16:37:30;0.10;99.90
3912;DHT22;1971;51.778;10.330;2023-03-03T16:40:10;0.10;99.90
3912;DHT22;1971;51.778;10.330;2023-03-03T16:42:40;0.00;99.90
3912;DHT22;1971;51.778;10.330;2023-03-03T16:45:19;-0.40;99.90
3912;DHT22;1971;51.778;10.330;2023-03-03T16:48:02;-0.50;99.90
3912;DHT22;1971;51.778;10.330;2023-03-03T16:50:40;-0.70;99.90
3912;DHT22;1971;51.778;10.330;2023-03-03T16:53:22;-0.60;99.90
3912;DHT22;1971;51.778;10.330;2023-03-03T16:56:03;-0.60;99.90
3912;DHT22;1971;51.778;10.330;2023-03-03T16:58:42;-0.50;99.90
3912;DHT22;1971;51.778;10.330;2023-03-03T17:01:24;-0.70;99.90
3912;DHT22;1971;51.778;10.330;2023-03-03T17:04:02;-0.80;99.90
3912;DHT22;1971;51.778;10.330;2023-03-03T17:06:39;-0.50;99.90
3912;DHT22;1971;51.778;10.330;2023-03-03T17:09:25;-0.20;99.90
3912;DHT22;1971;51.778;10.330;2023-03-03T17:12:13;-0.30;99.90
3912;DHT22;1971;51.778;10.330;2023-03-03T17:17:43;-0.60;99.90
3912;DHT22;1971;51.778;10.330;2023-03-03T17:20:26;-0.20;99.90
3912;DHT22;1971;51.778;10.330;2023-03-03T17:26:20;-0.40;99.90
3912;DHT22;1971;51.778;10.330;2023-03-03T17:29:01;-0.50;99.90
3912;DHT22;1971;51.778;10.330;2023-03-03T17:31:40;-0.30;99.90